AirNav  
 
 668 users online  

3W5 Mears Field Airport
Concrete, Washington, USA

GOING TO CONCRETE?


FAA INFORMATION EFFECTIVE 29 MARCH 2018

Location

FAA Identifier: 3W5
Lat/Long: 48-31-47.4180N / 121-45-29.6960W
48-31.790300N / 121-45.494933W
48.5298383 / -121.7582489
(estimated)
Elevation: 267 ft. / 81 m (estimated)
Variation: 21E (1985)
From city: 1 mile S of CONCRETE, WA
Time zone: UTC -7 (UTC -8 during Standard Time)
Zip code: 98237

Airport Operations

Airport use: Open to the public
Activation date: 07/1938
Control tower: no
ARTCC: SEATTLE CENTER
FSS: SEATTLE FLIGHT SERVICE STATION
NOTAMs facility: SEA (NOTAM-D service available)
Attendance: UNATNDD
Wind indicator: yes
Segmented circle: yes

Airport Communications

CTAF: 122.9

Nearby radio navigation aids

NDB name  Hdg/Dist  Freq  Var  ID
SKAGIT/BAY VIEW066/26.524016EBVS -... ...- ...

Airport Services

Fuel available: 100LL
Parking: tiedowns
Airframe service: NONE
Powerplant service: NONE
Bottled oxygen: NONE
Bulk oxygen: NONE

Runway Information

Runway 7/25

Dimensions: 2609 x 60 ft. / 795 x 18 m
Surface: asphalt, in good condition
Weight bearing capacity: 
Single wheel: 12.0
RUNWAY 7  RUNWAY 25
Latitude: 48-31.792783N48-31.787817N
Longitude: 121-45.817133W121-45.171067W
Gradient: 0.1%0.1%
Traffic pattern: rightleft
Markings: basic, in good conditionbasic, in good condition
Obstructions: 41 ft. trees, 900 ft. from runway, 17:1 slope to clear44 ft. trees, 720 ft. from runway, 11:1 slope to clear
INFREQUENTLY USED ROAD AT 0'.

Helipad H1

Dimensions: 40 x 40 ft. / 12 x 12 m
Surface: concrete, in good condition
Operational restrictions: HELIPAD FOR EMERGENCY USE ONLY.
Traffic pattern: leftleft

Airport Ownership and Management from official FAA records

Ownership: Publicly-owned
Owner: CITY OF CONCRETE
PO BOX 39
CONCRETE, WA 98237
Phone 360-853-8401
Manager: CITY OF CONCRETE
PO BOX 39
CONCRETE, WA 98237
Phone 360-853-7114
JACK MEARS: AIRPORT REPRESENTATIVE.

Airport Operational Statistics

Aircraft based on the field: 46
Single engine airplanes: 44
Multi engine airplanes: 2
    
Aircraft operations: avg 97/week *
60% transient general aviation
40% local general aviation
<1% military
* for 12-month period ending 31 December 2016

Additional Remarks

ALL PATTERNS SOUTH OF ARPT.
ELK AND DEER FREQUENT BOTH RWY ENDS AND MID-FIELD.

Instrument Procedures

There are no published instrument procedures at 3W5.

Some nearby airports with instrument procedures:

KBVS - Skagit Regional Airport (27 nm W)
KAWO - Arlington Municipal Airport (27 nm SW)
KBLI - Bellingham International Airport (35 nm NW)
KNUW - Whidbey Island Naval Air Station (Ault Field) (37 nm W)
S43 - Harvey Field Airport (40 nm S)
 
Loc | Ops | Rwys | IFR | FBO | Links
Com | Nav | Svcs | Stats | Notes

AirNav Hotels Sweepstakes
 
Area around 3W5 (Mears Field Airport)
 
Road maps at: MapQuest Bing Google
 
Aerial photo
WARNING: Photo may not be current or correct
Aerial photo of 3W5 (Mears Field Airport)
Photo by John Scurlock
Photo taken 19-Oct-2014
looking east.

Do you have a better or more recent aerial photo of Mears Field Airport that you would like to share? If so, please send us your photo.

 
Sectional chart

 
Airport distance calculator
Flying to Mears Field Airport? Find the distance to fly.

From to 3W5

Sunrise and sunset
Times for 24-Apr-2018
 Local
(UTC-7)
 Zulu
(UTC)
Morning civil twilight05:2612:26
Sunrise06:0013:00
Sunset20:1003:10
Evening civil twilight20:4403:44

Current date and time
Zulu (UTC)  25-Apr-2018 04:59:12
Local (UTC-7)  24-Apr-2018 21:59:12
 
METAR
KBVS 
26nm W 
250435Z AUTO 30007KT 10SM CLR 13/04 A3008 RMK A01
KAWO 
27nm SW 
250356Z AUTO 31006KT 10SM CLR 14/02 A3007 RMK AO2 SLP185 T01390022
KBLI 
35nm NW 
250453Z 00000KT 10SM CLR 11/08 A3008 RMK AO2 SLP193 T01060078
74S 
36nm W 
SuperAWOS
250435Z AUTO 00000KT 10SM 13/06 A3010
KNUW 
37nm W 
250356Z 24006KT 10SM CLR 12/07 A3011 RMK AO2 SLP196 T01170072 $
CYXX 
38nm NW 
250400Z 17005KT 15SM SCT220 BKN240 13/08 A3007 RMK CI3CS2 SLP185
KPAE 
42nm SW 
250453Z AUTO 32006KT 10SM CLR 13/06 A3009 RMK AO2 SLP187 T01280056
CWZA 
43nm N 
250400Z AUTO 04002KT 16/08 RMK AO1 SLP178 T01620080 53000
KORS 
46nm W 
250455Z AUTO 00000KT 10SM CLR 11/04 A3008 RMK AO2
CWWK 
49nm NW 
250400Z AUTO 27002KT 17/01 RMK AO1 SLP184 T01680014 55000
TAF
KBLI 
35nm NW 
241720Z 2418/2518 35006KT P6SM SCT250 FM250500 VRB03KT P6SM BKN200
KNUW 
37nm W 
2423/2523 26008KT 9999 FEW150 SCT220 BKN250 QNH3010INS FM250400 VRB06KT 9999 SCT150 BKN210 BKN250 QNH3008INS TEMPO 2504/2510 09007KT 9999 SCT220 SCT250 FM251600 28009KT 9999 FEW220 SCT250 QNH3005INS T07/2512Z T19/2523Z FS30046
CYXX 
38nm NW 
241738Z 2418/2518 35008KT P6SM BKN230 BECMG 2422/2424 25008KT BECMG 2503/2505 VRB03KT FM251200 02008KT P6SM SKC RMK NXT FCST BY 250000Z
KPAE 
42nm SW 
241720Z 2418/2518 36006KT P6SM SCT250 FM250500 04006KT P6SM BKN200
NOTAMs
Click for the latest NOTAMs
NOTAMs are issued by the DoD/FAA and will open in a separate window not controlled by AirNav.

 

 
 

Would you like to see your business listed on this page?

 If your business provides an interesting product or service to pilots, flight crews, aircraft, or users of the Mears Field Airport, you should consider listing it here.  To start the listing process, click on the button below
 
Add a business
 

Other Pages about Mears Field Airport

Update a link
 
Copyright © AirNav, LLC. All rights reserved. Privacy Policy  Contact